createdAt,value
2019-02-22T00:01:26.370Z,40.98
2019-02-22T00:03:53.908Z,40.25
2019-02-22T00:06:21.354Z,46.33
2019-02-22T00:08:48.718Z,43.13
2019-02-22T00:11:16.122Z,44.58
2019-02-22T00:13:43.461Z,41.00
2019-02-22T00:16:10.853Z,46.65
2019-02-22T00:18:38.195Z,43.60
2019-02-22T00:21:05.540Z,41.33
2019-02-22T00:23:32.945Z,49.10
2019-02-22T00:26:00.224Z,45.43
2019-02-22T00:28:27.569Z,43.40
2019-02-22T00:30:54.948Z,48.23
2019-02-22T00:33:22.278Z,46.55
2019-02-22T00:35:49.685Z,43.80
2019-02-22T00:38:17.170Z,45.98
2019-02-22T00:40:44.558Z,44.67
2019-02-22T00:43:12.933Z,45.12
2019-02-22T00:45:40.060Z,41.15
2019-02-22T00:48:07.228Z,44.58
2019-02-22T00:50:34.690Z,47.00
2019-02-22T00:53:03.152Z,44.35
2019-02-22T00:55:31.490Z,43.52
2019-02-22T00:57:58.657Z,43.87
2019-02-22T01:00:26.136Z,42.90
2019-02-22T01:02:53.523Z,47.03
2019-02-22T01:05:20.902Z,40.92
2019-02-22T01:07:48.248Z,41.25
2019-02-22T01:10:15.662Z,41.02
2019-02-22T01:12:42.883Z,44.30
2019-02-22T01:15:10.034Z,42.85
2019-02-22T01:17:37.361Z,53.05
2019-02-22T01:20:04.797Z,43.10
2019-02-22T01:22:32.363Z,44.58
2019-02-22T01:24:59.410Z,46.28
2019-02-22T01:27:26.722Z,45.40
2019-02-22T01:29:54.097Z,44.90
2019-02-22T01:32:21.587Z,43.13
2019-02-22T01:34:48.916Z,44.95
2019-02-22T01:37:16.328Z,42.25
2019-02-22T01:39:43.712Z,40.30
2019-02-22T01:42:11.141Z,45.30
2019-02-22T01:44:38.499Z,42.20
2019-02-22T01:47:05.746Z,41.18
2019-02-22T01:49:33.109Z,43.95
2019-02-22T01:52:00.563Z,44.10
2019-02-22T01:54:27.919Z,40.40
2019-02-22T01:56:55.342Z,42.30
2019-02-22T01:59:22.776Z,43.00
2019-02-22T02:01:50.132Z,48.63
2019-02-22T02:04:17.522Z,41.35
2019-02-22T02:06:44.843Z,45.95
2019-02-22T02:09:12.093Z,48.87
2019-02-22T02:11:39.434Z,44.45
2019-02-22T02:14:06.671Z,41.23
2019-02-22T02:16:33.807Z,41.65
2019-02-22T02:19:01.134Z,45.38
2019-02-22T02:21:28.515Z,47.45
2019-02-22T02:23:55.740Z,40.50
2019-02-22T02:26:23.074Z,40.50
2019-02-22T02:28:51.741Z,45.03
2019-02-22T02:31:19.321Z,49.27
2019-02-22T02:33:46.607Z,44.53
2019-02-22T02:36:13.742Z,46.20
2019-02-22T02:38:41.110Z,41.88
2019-02-22T02:41:11.455Z,48.00
2019-02-22T02:43:38.955Z,45.52
2019-02-22T02:46:07.116Z,55.75
2019-02-22T02:48:34.493Z,51.02
2019-02-22T02:51:01.807Z,50.15
2019-02-22T02:53:29.285Z,48.68
2019-02-22T02:55:56.520Z,47.35
2019-02-22T02:58:24.019Z,47.25
2019-02-22T03:00:51.430Z,42.95
2019-02-22T03:03:18.842Z,46.35
2019-02-22T03:05:52.622Z,49.38
2019-02-22T03:08:20.971Z,45.15
2019-02-22T03:10:48.288Z,46.45
2019-02-22T03:13:15.613Z,51.60
2019-02-22T03:15:42.950Z,50.95
2019-02-22T03:18:10.318Z,51.00
2019-02-22T03:20:37.693Z,50.30
2019-02-22T03:23:05.150Z,53.33
2019-02-22T03:25:32.460Z,51.25
2019-02-22T03:27:59.875Z,51.28
2019-02-22T03:30:27.253Z,47.10
2019-02-22T03:32:54.626Z,58.60
2019-02-22T03:35:21.770Z,51.83
2019-02-22T03:37:48.984Z,53.60
2019-02-22T03:40:16.433Z,54.85
2019-02-22T03:42:43.779Z,56.50
2019-02-22T03:45:11.122Z,57.67
2019-02-22T03:47:38.601Z,51.92
2019-02-22T03:50:06.083Z,52.62
2019-02-22T03:52:40.675Z,53.33
2019-02-22T03:55:08.036Z,54.60
2019-02-22T03:57:35.486Z,52.58
2019-02-22T04:00:03.554Z,54.30
2019-02-22T04:02:30.994Z,50.48
2019-02-22T04:04:58.282Z,54.10
2019-02-22T04:07:25.611Z,52.10
2019-02-22T04:09:52.999Z,52.98
2019-02-22T04:12:20.040Z,56.53
2019-02-22T04:14:47.378Z,55.80
2019-02-22T04:17:14.820Z,57.38
2019-02-22T04:19:42.140Z,56.05
2019-02-22T04:22:09.433Z,52.40
2019-02-22T04:24:36.666Z,57.75
2019-02-22T04:27:04.021Z,55.45
2019-02-22T04:29:31.494Z,52.62
2019-02-22T04:31:58.818Z,54.73
2019-02-22T04:34:26.087Z,50.78
2019-02-22T04:36:53.407Z,57.08
2019-02-22T04:39:20.813Z,59.73
2019-02-22T04:41:57.801Z,59.40
2019-02-22T04:44:17.370Z,62.30
2019-02-22T04:46:44.807Z,66.37
2019-02-22T04:49:12.150Z,64.30
2019-02-22T04:51:39.449Z,62.40
2019-02-22T04:54:06.527Z,62.43
2019-02-22T04:56:33.831Z,57.85
2019-02-22T04:59:01.298Z,51.15
2019-02-22T05:01:28.643Z,54.03
2019-02-22T05:03:55.845Z,51.23
2019-02-22T05:06:23.157Z,54.48
2019-02-22T05:08:51.663Z,54.83
2019-02-22T05:11:19.023Z,49.38
2019-02-22T05:13:46.398Z,52.90
2019-02-22T05:16:13.759Z,51.50
2019-02-22T05:18:40.986Z,56.18
2019-02-22T05:21:08.357Z,56.33
2019-02-22T05:23:35.677Z,55.83
2019-02-22T05:26:03.068Z,53.40
2019-02-22T05:28:30.408Z,53.92
2019-02-22T05:30:57.866Z,56.75
2019-02-22T05:33:25.016Z,56.13
2019-02-22T05:35:52.284Z,57.30
2019-02-22T05:38:19.620Z,55.35
2019-02-22T05:40:47.098Z,59.15
2019-02-22T05:43:14.484Z,53.75
2019-02-22T05:45:41.799Z,55.63
2019-02-22T05:48:09.055Z,53.35
2019-02-22T05:50:36.472Z,56.42
2019-02-22T05:53:03.864Z,49.27
2019-02-22T05:55:31.032Z,53.90
2019-02-22T05:57:58.181Z,58.20
2019-02-22T06:00:26.764Z,56.85
2019-02-22T06:02:54.198Z,65.37
2019-02-22T06:05:21.343Z,59.55
2019-02-22T06:07:48.720Z,67.65
2019-02-22T06:10:16.035Z,61.30
2019-02-22T06:12:43.268Z,61.48
2019-02-22T06:15:10.666Z,49.60
2019-02-22T06:17:37.872Z,51.42
2019-02-22T06:20:05.601Z,60.35
2019-02-22T06:22:33.012Z,57.95
2019-02-22T06:25:00.430Z,54.80
2019-02-22T06:27:27.791Z,54.53
2019-02-22T06:29:55.193Z,64.47
2019-02-22T06:32:22.616Z,60.78
2019-02-22T06:34:49.989Z,66.25
2019-02-22T06:37:17.326Z,71.75
2019-02-22T06:39:44.716Z,64.07
2019-02-22T06:42:12.129Z,59.80
2019-02-22T06:44:39.474Z,57.55
2019-02-22T06:47:06.867Z,64.20
2019-02-22T06:49:34.229Z,54.83
2019-02-22T06:52:01.579Z,53.05
2019-02-22T06:54:28.888Z,47.43
2019-02-22T06:56:56.169Z,48.08
2019-02-22T06:59:24.795Z,40.30
2019-02-22T07:01:52.198Z,37.42
2019-02-22T07:04:19.598Z,35.90
2019-02-22T07:06:47.072Z,36.90
2019-02-22T07:09:14.629Z,41.60
2019-02-22T07:11:49.347Z,40.12
2019-02-22T07:14:16.512Z,42.65
2019-02-22T07:16:43.885Z,50.70
2019-02-22T07:19:11.217Z,43.30
2019-02-22T07:21:49.350Z,44.08
2019-02-22T07:24:07.776Z,42.53
2019-02-22T07:26:35.171Z,35.90
2019-02-22T07:29:02.265Z,39.30
2019-02-22T07:31:29.660Z,36.98
2019-02-22T07:33:57.026Z,36.35
2019-02-22T07:36:24.383Z,30.23
2019-02-22T07:38:51.927Z,34.78
2019-02-22T07:41:19.375Z,40.23
2019-02-22T07:43:46.635Z,42.70
2019-02-22T07:46:14.041Z,34.60
2019-02-22T07:48:41.380Z,43.00
2019-02-22T07:51:08.755Z,48.55
2019-02-22T07:53:36.088Z,41.42
2019-02-22T07:56:03.430Z,40.40
2019-02-22T07:58:30.742Z,42.75
2019-02-22T08:00:58.191Z,37.67
2019-02-22T08:03:25.599Z,45.75
2019-02-22T08:05:53.078Z,40.70
2019-02-22T08:08:20.453Z,41.77
2019-02-22T08:10:47.905Z,48.65
2019-02-22T08:13:19.756Z,36.77
2019-02-22T08:15:44.805Z,38.48
2019-02-22T08:18:12.440Z,36.42
2019-02-22T08:20:39.565Z,40.80
2019-02-22T08:23:06.936Z,44.55
2019-02-22T08:25:34.287Z,37.67
2019-02-22T08:28:01.563Z,37.88
2019-02-22T08:30:28.878Z,34.27
2019-02-22T08:32:56.323Z,37.42
2019-02-22T08:35:23.732Z,26.85
2019-02-22T08:37:51.203Z,26.65
2019-02-22T08:40:19.662Z,24.43
2019-02-22T08:42:47.034Z,25.48
2019-02-22T08:45:14.416Z,24.90
2019-02-22T08:47:41.850Z,25.40
2019-02-22T08:50:09.106Z,23.87
2019-02-22T08:52:36.630Z,28.95
2019-02-22T08:55:04.251Z,27.20
2019-02-22T08:57:31.990Z,37.00
2019-02-22T08:59:59.446Z,25.77
2019-02-22T09:02:26.843Z,25.35
2019-02-22T09:04:54.187Z,25.32
2019-02-22T09:07:21.542Z,22.62
2019-02-22T09:09:48.915Z,22.85
2019-02-22T09:12:16.222Z,22.62
2019-02-22T09:14:43.591Z,22.75
2019-02-22T09:17:10.948Z,17.40
2019-02-22T09:19:38.284Z,25.92
2019-02-22T09:22:05.865Z,26.80
2019-02-22T09:24:32.999Z,18.07
2019-02-22T09:27:00.287Z,31.97
2019-02-22T09:29:27.653Z,19.57
2019-02-22T09:31:55.039Z,20.75
2019-02-22T09:34:22.256Z,17.98
2019-02-22T09:36:49.584Z,20.23
2019-02-22T09:39:16.962Z,12.00
2019-02-22T09:41:44.381Z,11.15
2019-02-22T09:44:11.766Z,9.48
2019-02-22T09:46:39.062Z,9.63
2019-02-22T09:49:07.595Z,8.75
2019-02-22T09:51:35.115Z,8.80
2019-02-22T09:54:02.488Z,13.90
2019-02-22T09:56:29.952Z,14.47
2019-02-22T09:58:57.223Z,12.40
2019-02-22T10:01:24.431Z,8.80
2019-02-22T10:03:51.783Z,7.55
2019-02-22T10:06:19.155Z,6.67
2019-02-22T10:08:46.433Z,5.50
2019-02-22T10:11:14.682Z,6.90
2019-02-22T10:13:41.846Z,6.28
2019-02-22T10:16:09.160Z,5.33
2019-02-22T10:18:36.581Z,5.12
2019-02-22T10:21:04.031Z,7.22
2019-02-22T10:23:31.551Z,7.30
2019-02-22T10:25:59.041Z,6.22
2019-02-22T10:28:26.608Z,4.47
2019-02-22T10:30:53.775Z,5.12
2019-02-22T10:33:21.099Z,4.83
2019-02-22T10:35:48.571Z,4.08
2019-02-22T10:38:16.037Z,4.85
2019-02-22T10:40:43.454Z,3.77
2019-02-22T10:43:10.883Z,3.72
2019-02-22T10:45:38.439Z,4.35
2019-02-22T10:48:05.942Z,3.85
2019-02-22T10:50:33.400Z,3.77
2019-02-22T10:53:03.379Z,3.40
2019-02-22T10:55:30.922Z,3.17
2019-02-22T10:57:58.461Z,4.80
2019-02-22T11:00:25.951Z,2.50
2019-02-22T11:02:53.437Z,4.85
2019-02-22T11:05:20.809Z,6.03
2019-02-22T11:07:48.466Z,6.10
2019-02-22T11:10:15.951Z,4.90
2019-02-22T11:12:43.257Z,3.67
2019-02-22T11:15:10.651Z,3.75
2019-02-22T11:17:38.131Z,5.90
2019-02-22T11:20:06.333Z,3.60
2019-02-22T11:22:33.615Z,6.00
2019-02-22T11:25:01.006Z,4.65
2019-02-22T11:27:28.683Z,4.17
2019-02-22T11:29:57.130Z,8.63
2019-02-22T11:32:24.310Z,4.92
2019-02-22T11:34:51.754Z,5.65
2019-02-22T11:37:19.062Z,6.15
2019-02-22T11:39:46.507Z,5.03
2019-02-22T11:42:13.982Z,5.75
2019-02-22T11:44:41.347Z,6.08
2019-02-22T11:47:08.687Z,8.80
2019-02-22T11:49:36.061Z,11.73
2019-02-22T11:52:03.659Z,8.43
2019-02-22T11:54:30.949Z,4.30
2019-02-22T11:56:58.308Z,8.88
2019-02-22T11:59:25.665Z,5.83
2019-02-22T12:01:53.093Z,5.15
2019-02-22T12:04:20.447Z,6.92
2019-02-22T12:06:48.099Z,4.90
2019-02-22T12:09:15.607Z,7.22
2019-02-22T12:11:43.011Z,6.17
2019-02-22T12:14:10.318Z,5.72
2019-02-22T12:16:37.675Z,6.03
2019-02-22T12:19:04.961Z,5.60
2019-02-22T12:21:33.386Z,7.25
2019-02-22T12:24:00.839Z,5.97
2019-02-22T12:26:28.190Z,7.53
2019-02-22T12:28:55.716Z,6.60
2019-02-22T12:31:22.979Z,8.00
2019-02-22T12:33:50.415Z,6.58
2019-02-22T12:36:17.766Z,5.45
2019-02-22T12:38:45.039Z,6.17
2019-02-22T12:41:12.501Z,8.88
2019-02-22T12:43:39.901Z,8.25
2019-02-22T12:46:07.268Z,8.15
2019-02-22T12:48:34.678Z,7.35
2019-02-22T12:51:02.021Z,6.87
2019-02-22T12:53:29.259Z,9.33
2019-02-22T12:55:56.631Z,7.90
2019-02-22T12:58:23.962Z,9.20
2019-02-22T13:00:51.270Z,9.65
2019-02-22T13:03:18.642Z,10.75
2019-02-22T13:05:46.103Z,6.72
2019-02-22T13:08:13.554Z,11.15
2019-02-22T13:10:41.006Z,7.17
2019-02-22T13:13:08.375Z,7.95
2019-02-22T13:15:35.691Z,7.80
2019-02-22T13:18:03.250Z,7.42
2019-02-22T13:20:30.610Z,7.92
2019-02-22T13:22:58.000Z,6.08
2019-02-22T13:25:26.441Z,8.78
2019-02-22T13:27:53.883Z,6.78
2019-02-22T13:30:21.211Z,7.53
2019-02-22T13:32:48.558Z,13.72
2019-02-22T13:35:15.866Z,12.28
2019-02-22T13:37:43.165Z,18.90
2019-02-22T13:40:11.711Z,10.88
2019-02-22T13:42:39.135Z,13.40
2019-02-22T13:45:07.534Z,9.73
2019-02-22T13:47:35.098Z,10.35
2019-02-22T13:50:02.467Z,10.82
2019-02-22T13:52:30.101Z,8.43
2019-02-22T13:54:57.551Z,13.28
2019-02-22T13:57:24.884Z,13.32
2019-02-22T13:59:52.313Z,9.93
2019-02-22T14:02:19.691Z,8.83
2019-02-22T14:04:46.936Z,7.90
2019-02-22T14:07:14.419Z,8.23
2019-02-22T14:09:41.834Z,7.20
2019-02-22T14:12:10.306Z,8.50
2019-02-22T14:14:37.708Z,8.55
2019-02-22T14:17:05.051Z,8.28
2019-02-22T14:19:32.394Z,9.18
2019-02-22T14:21:59.746Z,8.95
2019-02-22T14:24:27.207Z,10.00
2019-02-22T14:26:54.557Z,9.00
2019-02-22T14:29:22.947Z,9.55
2019-02-22T14:31:50.474Z,11.65
2019-02-22T14:34:17.877Z,9.35
2019-02-22T14:36:45.339Z,8.63
2019-02-22T14:39:12.829Z,9.03
2019-02-22T14:41:40.278Z,7.60
2019-02-22T14:44:07.695Z,7.72
2019-02-22T14:46:35.069Z,7.95
2019-02-22T14:49:02.487Z,7.12
2019-02-22T14:51:29.843Z,8.05
2019-02-22T14:53:57.148Z,7.08
2019-02-22T14:56:24.518Z,10.43
2019-02-22T14:58:52.153Z,7.25
2019-02-22T15:01:20.633Z,8.30
2019-02-22T15:03:48.021Z,9.13
2019-02-22T15:06:15.405Z,8.83
2019-02-22T15:08:42.825Z,9.53
2019-02-22T15:11:10.707Z,11.35
2019-02-22T15:13:38.045Z,10.80
2019-02-22T15:16:29.107Z,9.50
2019-02-22T15:18:56.355Z,8.78
2019-02-22T15:21:24.430Z,10.85
2019-02-22T15:23:51.894Z,10.13
2019-02-22T15:26:19.230Z,8.95
2019-02-22T15:28:47.077Z,9.45
2019-02-22T15:31:14.673Z,11.15
2019-02-22T15:33:42.048Z,10.08
2019-02-22T15:36:09.336Z,10.90
2019-02-22T15:38:36.707Z,9.88
2019-02-22T15:41:04.333Z,8.10
2019-02-22T15:43:31.734Z,10.80
2019-02-22T15:45:59.113Z,8.75
2019-02-22T15:48:26.657Z,8.83
2019-02-22T15:50:54.085Z,13.50
2019-02-22T15:53:21.493Z,11.25
2019-02-22T15:55:48.899Z,9.90
2019-02-22T15:58:16.227Z,8.18
2019-02-22T16:00:43.775Z,7.65
2019-02-22T16:03:11.197Z,6.70
2019-02-22T16:05:40.920Z,7.30
2019-02-22T16:08:08.297Z,11.50
2019-02-22T16:10:35.676Z,8.20
2019-02-22T16:13:03.151Z,6.55
2019-02-22T16:15:30.661Z,9.90
2019-02-22T16:17:58.009Z,7.42
2019-02-22T16:20:25.322Z,6.22
2019-02-22T16:22:52.672Z,7.78
2019-02-22T16:25:20.307Z,8.45
2019-02-22T16:27:47.845Z,8.60
2019-02-22T16:30:17.042Z,8.88
2019-02-22T16:32:44.539Z,10.03
2019-02-22T16:35:11.912Z,9.23
2019-02-22T16:37:39.296Z,8.13
2019-02-22T16:40:07.955Z,8.28
2019-02-22T16:42:35.358Z,7.72
2019-02-22T16:45:05.066Z,9.58
2019-02-22T16:47:39.608Z,9.03
2019-02-22T16:50:01.620Z,7.37
2019-02-22T16:52:29.317Z,8.78
2019-02-22T16:54:56.712Z,9.43
2019-02-22T16:57:24.070Z,9.48
2019-02-22T16:59:51.526Z,8.05
2019-02-22T17:02:18.825Z,9.98
2019-02-22T17:04:46.099Z,10.40
2019-02-22T17:07:13.533Z,10.55
2019-02-22T17:09:41.119Z,9.00
2019-02-22T17:12:08.586Z,11.33
2019-02-22T17:14:35.930Z,11.03
2019-02-22T17:17:03.319Z,9.40
2019-02-22T17:19:30.818Z,9.75
2019-02-22T17:21:58.608Z,10.78
2019-02-22T17:24:27.149Z,11.38
2019-02-22T17:26:54.544Z,11.33
2019-02-22T17:29:21.970Z,9.10
2019-02-22T17:31:49.416Z,9.55
2019-02-22T17:34:16.971Z,10.90
2019-02-22T17:36:44.333Z,9.10
2019-02-22T17:39:11.775Z,11.48
2019-02-22T17:41:42.779Z,9.70
2019-02-22T17:44:10.945Z,11.95
2019-02-22T17:46:38.340Z,11.60
2019-02-22T17:49:05.747Z,10.48
2019-02-22T17:51:33.048Z,10.85
2019-02-22T17:54:00.457Z,10.18
2019-02-22T17:56:27.966Z,9.15
2019-02-22T17:58:55.489Z,10.65
2019-02-22T18:01:23.051Z,9.20
2019-02-22T18:03:50.877Z,9.30
2019-02-22T18:06:18.425Z,10.65
2019-02-22T18:08:45.951Z,8.83
2019-02-22T18:11:13.354Z,10.53
2019-02-22T18:13:40.934Z,9.20
2019-02-22T18:16:08.492Z,10.03
2019-02-22T18:18:35.864Z,13.30
2019-02-22T18:21:03.270Z,11.22
2019-02-22T18:23:30.720Z,10.38
2019-02-22T18:26:48.260Z,10.58
2019-02-22T18:29:15.816Z,8.50
2019-02-22T18:31:43.347Z,11.33
2019-02-22T18:34:10.819Z,12.75
2019-02-22T18:36:38.394Z,10.13
2019-02-22T18:39:06.208Z,10.32
2019-02-22T18:41:34.980Z,10.60
2019-02-22T18:44:02.411Z,11.38
2019-02-22T18:46:30.379Z,10.90
2019-02-22T18:48:57.871Z,11.83
2019-02-22T18:51:25.315Z,9.75
2019-02-22T18:53:52.613Z,9.80
2019-02-22T18:56:20.079Z,8.95
2019-02-22T18:58:47.390Z,10.55
2019-02-22T19:01:14.890Z,12.68
2019-02-22T19:03:42.547Z,11.70
2019-02-22T19:06:09.996Z,11.00
2019-02-22T19:08:38.698Z,10.58
2019-02-22T19:11:06.036Z,12.80
2019-02-22T19:13:33.328Z,8.98
2019-02-22T19:16:00.729Z,10.75
2019-02-22T19:18:28.393Z,11.05
2019-02-22T19:20:55.917Z,12.30
2019-02-22T19:23:24.698Z,12.13
2019-02-22T19:25:52.015Z,12.75
2019-02-22T19:28:19.359Z,13.72
2019-02-22T19:30:47.056Z,14.28
2019-02-22T19:33:14.592Z,14.15
2019-02-22T19:35:42.079Z,11.45
2019-02-22T19:38:09.463Z,11.53
2019-02-22T19:40:57.210Z,11.97
2019-02-22T19:43:24.782Z,11.53
2019-02-22T19:45:52.290Z,11.15
2019-02-22T19:48:19.709Z,12.58
2019-02-22T23:47:55.947Z,12.80
2019-02-22T23:52:06.565Z,13.90
2019-02-22T23:54:34.047Z,12.47
2019-02-22T23:57:01.488Z,14.83
2019-02-22T23:59:28.767Z,14.95
